Time;durP1;ratioP1;P1;durP2;ratioP2;P2;SDS_P1;SDS_P2;PMS_P1;PMS_P2;Temp;Humidity;BMP_temperature;BMP_pressure;BME280_temperature;BME280_humidity;BME280_pressure;Samples;Min_cycle;Max_cycle;Signal;HPM_P1;HPM_P2
2024/01/31 00:02:14;;;;;;;12.87;5.47;;;;;;;;;;5062963;28;20730;-80
2024/01/31 00:04:40;;;;;;;6.70;4.87;;;;;;;;;;5081045;28;20798;-80
2024/01/31 00:07:06;;;;;;;7.43;4.93;;;;;;;;;;5078309;28;20206;-79
2024/01/31 00:09:32;;;;;;;7.93;4.60;;;;;;;;;;5080548;28;20267;-79
2024/01/31 00:11:58;;;;;;;10.63;4.63;;;;;;;;;;5091719;28;20179;-79
2024/01/31 00:14:24;;;;;;;8.40;4.60;;;;;;;;;;5088303;28;20215;-79
2024/01/31 00:16:51;;;;;;;12.67;4.70;;;;;;;;;;5065855;28;20226;-80
2024/01/31 00:19:17;;;;;;;9.10;4.57;;;;;;;;;;5092790;28;20736;-80
2024/01/31 00:21:43;;;;;;;11.47;4.53;;;;;;;;;;5093441;28;20285;-80
2024/01/31 00:24:12;;;;;;;7.37;4.60;;;;;;;;;;5097505;28;20198;-81
2024/01/31 00:26:38;;;;;;;8.00;4.80;;;;;;;;;;5098655;28;20167;-81
2024/01/31 00:29:04;;;;;;;7.33;4.53;;;;;;;;;;5088035;28;20219;-81
2024/01/31 00:31:30;;;;;;;8.27;5.27;;;;;;;;;;5090951;28;20787;-81
2024/01/31 00:33:56;;;;;;;8.47;4.77;;;;;;;;;;5091671;28;20291;-79
2024/01/31 00:36:22;;;;;;;10.27;4.70;;;;;;;;;;5087498;28;20198;-80
2024/01/31 00:38:49;;;;;;;6.47;4.50;;;;;;;;;;5087034;28;20752;-80
2024/01/31 00:41:15;;;;;;;7.37;4.10;;;;;;;;;;5089879;28;20283;-79
2024/01/31 00:43:41;;;;;;;4.93;3.47;;;;;;;;;;5085792;28;20203;-80
2024/01/31 00:46:07;;;;;;;7.13;3.90;;;;;;;;;;5089062;28;20218;-79
2024/01/31 00:48:33;;;;;;;6.70;3.87;;;;;;;;;;5085616;28;20217;-80
2024/01/31 00:51:00;;;;;;;6.50;3.73;;;;;;;;;;5082982;28;20758;-82
2024/01/31 00:53:26;;;;;;;8.67;4.90;;;;;;;;;;5084958;28;20222;-80
2024/01/31 00:55:52;;;;;;;7.53;3.37;;;;;;;;;;5086269;28;20728;-81
2024/01/31 00:58:18;;;;;;;8.40;4.40;;;;;;;;;;5066764;28;20578;-79
2024/01/31 01:00:44;;;;;;;5.10;3.73;;;;;;;;;;5088367;28;20221;-82
2024/01/31 01:03:10;;;;;;;5.00;3.40;;;;;;;;;;5069546;28;20178;-82
2024/01/31 01:05:36;;;;;;;8.33;3.83;;;;;;;;;;5089642;28;22132;-81
2024/01/31 01:08:02;;;;;;;7.50;3.77;;;;;;;;;;5089145;28;20777;-81
2024/01/31 01:10:28;;;;;;;4.50;3.37;;;;;;;;;;5083815;28;20198;-80
2024/01/31 01:12:56;;;;;;;4.27;3.20;;;;;;;;;;5089878;28;20222;-80
2024/01/31 01:15:22;;;;;;;8.73;3.50;;;;;;;;;;5084516;28;20203;-79
2024/01/31 01:17:48;;;;;;;5.17;3.47;;;;;;;;;;5085922;28;20195;-79
2024/01/31 01:20:14;;;;;;;5.93;3.37;;;;;;;;;;5080895;28;20233;-78
2024/01/31 01:22:42;;;;;;;4.73;3.07;;;;;;;;;;5065925;28;20703;-79
2024/01/31 01:25:09;;;;;;;4.37;2.93;;;;;;;;;;5083014;28;20210;-79
2024/01/31 01:27:35;;;;;;;5.30;3.17;;;;;;;;;;5081386;28;20215;-80
2024/01/31 01:30:01;;;;;;;5.83;3.27;;;;;;;;;;5086774;28;20266;-80
2024/01/31 01:32:27;;;;;;;4.97;3.43;;;;;;;;;;5080880;28;20199;-81
2024/01/31 01:34:53;;;;;;;6.83;3.43;;;;;;;;;;5083849;28;20241;-81
2024/01/31 01:37:19;;;;;;;4.53;2.97;;;;;;;;;;5089044;28;20202;-79
2024/01/31 01:39:45;;;;;;;5.73;2.80;;;;;;;;;;5067560;28;20638;-81
2024/01/31 01:42:12;;;;;;;3.47;2.80;;;;;;;;;;5082058;28;20205;-80
2024/01/31 01:44:42;;;;;;;4.90;3.43;;;;;;;;;;5083830;28;20249;-78
2024/01/31 01:47:09;;;;;;;5.37;3.40;;;;;;;;;;5084415;28;20214;-80
2024/01/31 01:49:37;;;;;;;3.73;2.50;;;;;;;;;;5082464;28;20822;-80
2024/01/31 01:52:04;;;;;;;4.00;2.80;;;;;;;;;;5077276;28;20237;-79
2024/01/31 01:54:30;;;;;;;4.20;2.40;;;;;;;;;;5076823;28;20214;-79
2024/01/31 01:56:57;;;;;;;3.97;2.33;;;;;;;;;;5075437;28;20179;-80
2024/01/31 01:59:23;;;;;;;3.67;2.57;;;;;;;;;;5081658;28;20669;-77
2024/01/31 02:01:49;;;;;;;3.57;2.03;;;;;;;;;;5069397;28;20324;-79
2024/01/31 02:04:18;;;;;;;4.00;2.27;;;;;;;;;;5074277;28;20293;-79
2024/01/31 02:06:44;;;;;;;3.20;2.40;;;;;;;;;;5080150;28;20207;-79
2024/01/31 02:09:10;;;;;;;3.27;1.77;;;;;;;;;;5080082;28;20178;-78
2024/01/31 02:11:36;;;;;;;2.30;1.60;;;;;;;;;;5077606;28;20261;-79
2024/01/31 02:14:02;;;;;;;2.43;1.80;;;;;;;;;;5082537;28;20230;-81
2024/01/31 02:16:28;;;;;;;1.40;1.17;;;;;;;;;;5081808;28;20301;-79
2024/01/31 02:18:54;;;;;;;2.43;1.40;;;;;;;;;;5084949;28;20214;-79
2024/01/31 02:21:22;;;;;;;1.87;1.60;;;;;;;;;;5077887;28;20278;-80
2024/01/31 02:23:48;;;;;;;3.20;1.40;;;;;;;;;;5077092;28;20176;-79
2024/01/31 02:26:14;;;;;;;2.13;1.50;;;;;;;;;;5084700;28;20240;-79
2024/01/31 02:28:40;;;;;;;2.53;1.30;;;;;;;;;;5063192;28;20240;-79
2024/01/31 02:31:06;;;;;;;2.43;1.20;;;;;;;;;;5090218;28;20207;-80
2024/01/31 02:33:32;;;;;;;2.87;1.23;;;;;;;;;;5089308;28;20210;-80
2024/01/31 02:35:58;;;;;;;1.50;1.20;;;;;;;;;;5090658;28;20206;-78
2024/01/31 02:38:24;;;;;;;1.47;1.30;;;;;;;;;;5091798;28;20249;-79
2024/01/31 02:40:50;;;;;;;1.67;1.10;;;;;;;;;;5085182;28;20215;-80
2024/01/31 02:43:16;;;;;;;2.10;1.43;;;;;;;;;;5092663;28;20198;-81
2024/01/31 02:45:42;;;;;;;2.20;1.37;;;;;;;;;;5084268;28;20827;-80
2024/01/31 02:48:08;;;;;;;1.97;1.10;;;;;;;;;;5083746;28;20179;-81
2024/01/31 02:50:34;;;;;;;2.17;1.50;;;;;;;;;;5080832;28;20175;-80
2024/01/31 02:53:01;;;;;;;2.47;1.57;;;;;;;;;;5085054;28;20203;-79
2024/01/31 02:55:27;;;;;;;1.33;1.07;;;;;;;;;;5084780;28;20236;-77
2024/01/31 02:57:53;;;;;;;1.40;0.87;;;;;;;;;;5068667;28;20214;-79
2024/01/31 03:00:19;;;;;;;3.63;1.40;;;;;;;;;;5084062;28;20179;-81
2024/01/31 03:02:45;;;;;;;2.50;1.27;;;;;;;;;;5082162;28;20274;-79
2024/01/31 03:05:11;;;;;;;2.10;1.37;;;;;;;;;;5067278;28;20238;-78
2024/01/31 03:07:37;;;;;;;1.10;1.00;;;;;;;;;;5081488;28;20301;-79
2024/01/31 03:10:03;;;;;;;3.50;1.43;;;;;;;;;;5072448;28;20293;-80
2024/01/31 03:12:29;;;;;;;2.17;1.20;;;;;;;;;;5066662;28;20214;-77
2024/01/31 03:14:56;;;;;;;1.60;1.23;;;;;;;;;;5075895;28;20195;-80
2024/01/31 03:17:22;;;;;;;1.47;0.80;;;;;;;;;;5068851;28;20608;-80
2024/01/31 03:19:48;;;;;;;1.57;1.00;;;;;;;;;;5083242;28;20214;-79
2024/01/31 03:22:14;;;;;;;1.67;1.00;;;;;;;;;;5069590;28;20209;-80
2024/01/31 03:24:39;;;;;;;1.60;1.17;;;;;;;;;;5081769;28;20732;-79
2024/01/31 03:27:06;;;;;;;0.60;0.60;;;;;;;;;;5077325;28;20178;-79
2024/01/31 03:29:32;;;;;;;1.30;0.83;;;;;;;;;;5072598;28;20344;-79
2024/01/31 03:31:58;;;;;;;2.90;0.90;;;;;;;;;;5074384;28;20290;-77
2024/01/31 03:34:24;;;;;;;0.50;0.50;;;;;;;;;;5072497;28;20238;-79
2024/01/31 03:36:50;;;;;;;1.23;1.00;;;;;;;;;;5063026;28;21889;-80
2024/01/31 03:39:18;;;;;;;2.03;1.00;;;;;;;;;;5084054;28;20218;-80
2024/01/31 03:41:45;;;;;;;0.50;0.40;;;;;;;;;;5081015;28;20279;-79
2024/01/31 03:44:13;;;;;;;0.50;0.40;;;;;;;;;;5086769;28;20210;-79
2024/01/31 03:46:39;;;;;;;0.40;0.40;;;;;;;;;;5085173;28;20252;-79
2024/01/31 03:49:05;;;;;;;1.90;0.70;;;;;;;;;;5069044;28;20203;-80
2024/01/31 03:51:31;;;;;;;1.33;0.70;;;;;;;;;;5083183;28;20226;-80
2024/01/31 03:53:57;;;;;;;1.33;0.50;;;;;;;;;;5086409;28;20205;-79
2024/01/31 03:56:23;;;;;;;0.90;0.63;;;;;;;;;;5071285;28;20202;-79
2024/01/31 03:58:49;;;;;;;0.83;0.50;;;;;;;;;;5085809;28;20206;-79
2024/01/31 04:01:15;;;;;;;0.83;0.57;;;;;;;;;;5086746;28;20214;-81
2024/01/31 04:03:42;;;;;;;0.97;0.60;;;;;;;;;;5090799;28;20711;-79
2024/01/31 04:06:08;;;;;;;0.67;0.67;;;;;;;;;;5084539;28;20206;-78
2024/01/31 04:08:34;;;;;;;0.40;0.40;;;;;;;;;;5072786;28;20759;-78
2024/01/31 04:11:00;;;;;;;0.70;0.60;;;;;;;;;;5079727;28;20270;-80
2024/01/31 04:13:27;;;;;;;2.03;0.60;;;;;;;;;;5085910;28;20732;-80
2024/01/31 04:15:53;;;;;;;1.90;0.80;;;;;;;;;;5087283;28;20233;-80
2024/01/31 04:18:19;;;;;;;0.57;0.50;;;;;;;;;;5087144;28;20182;-80
2024/01/31 04:20:46;;;;;;;0.73;0.60;;;;;;;;;;5081749;28;20199;-80
2024/01/31 04:23:12;;;;;;;0.73;0.70;;;;;;;;;;5083827;28;20219;-80
2024/01/31 04:25:38;;;;;;;0.90;0.63;;;;;;;;;;5084943;28;20210;-79
2024/01/31 04:28:04;;;;;;;0.90;0.70;;;;;;;;;;5086292;28;20582;-80
2024/01/31 04:30:30;;;;;;;0.50;0.40;;;;;;;;;;5084433;28;20715;-80
2024/01/31 04:33:00;;;;;;;2.43;0.80;;;;;;;;;;5087795;28;20265;-80
2024/01/31 04:35:26;;;;;;;0.93;0.77;;;;;;;;;;5085242;28;20215;-80
2024/01/31 04:37:52;;;;;;;1.20;0.73;;;;;;;;;;5084235;28;20212;-82
2024/01/31 04:40:18;;;;;;;1.23;0.60;;;;;;;;;;5090697;28;20194;-80
2024/01/31 04:42:46;;;;;;;1.53;0.90;;;;;;;;;;5080727;28;20214;-81
2024/01/31 04:45:13;;;;;;;0.73;0.57;;;;;;;;;;5081559;28;20218;-82
2024/01/31 04:47:39;;;;;;;1.20;0.80;;;;;;;;;;5082582;28;20282;-78
2024/01/31 04:50:05;;;;;;;0.90;0.50;;;;;;;;;;5084285;28;20214;-79
2024/01/31 04:52:31;;;;;;;1.07;0.70;;;;;;;;;;5083987;28;20210;-80
2024/01/31 04:54:57;;;;;;;1.33;0.70;;;;;;;;;;5091097;28;20221;-80
2024/01/31 04:57:23;;;;;;;1.83;0.77;;;;;;;;;;5083475;28;20209;-81
2024/01/31 04:59:49;;;;;;;2.50;0.50;;;;;;;;;;5082581;28;20178;-80
2024/01/31 05:02:15;;;;;;;1.73;0.60;;;;;;;;;;5087345;28;20440;-81
2024/01/31 05:04:41;;;;;;;0.90;0.50;;;;;;;;;;5082154;28;20203;-78
2024/01/31 05:07:07;;;;;;;1.00;0.50;;;;;;;;;;5086893;28;20590;-81
2024/01/31 05:09:33;;;;;;;0.83;0.50;;;;;;;;;;5083004;28;20211;-80
2024/01/31 05:11:59;;;;;;;0.87;0.30;;;;;;;;;;5079668;28;20703;-80
2024/01/31 05:14:25;;;;;;;2.43;0.60;;;;;;;;;;5084632;28;20227;-81
2024/01/31 05:16:51;;;;;;;0.90;0.70;;;;;;;;;;5087497;28;20461;-80
2024/01/31 05:19:17;;;;;;;0.50;0.30;;;;;;;;;;5086971;28;20237;-81
2024/01/31 05:21:47;;;;;;;0.30;0.30;;;;;;;;;;5083373;28;20280;-81
2024/01/31 05:24:13;;;;;;;0.50;0.50;;;;;;;;;;5089669;28;20199;-81
2024/01/31 05:26:40;;;;;;;1.80;0.50;;;;;;;;;;5081342;28;20174;-79
2024/01/31 05:29:06;;;;;;;1.63;0.70;;;;;;;;;;5076944;28;20231;-80
2024/01/31 05:31:32;;;;;;;1.67;0.50;;;;;;;;;;5082098;28;20283;-79
2024/01/31 05:33:58;;;;;;;1.37;0.73;;;;;;;;;;5081231;28;20209;-78
2024/01/31 05:36:24;;;;;;;2.10;0.60;;;;;;;;;;5068838;28;20186;-80
2024/01/31 05:38:50;;;;;;;2.00;0.87;;;;;;;;;;5086702;28;20187;-79
2024/01/31 05:41:17;;;;;;;1.10;1.00;;;;;;;;;;5091809;28;20290;-82
2024/01/31 05:43:43;;;;;;;2.80;0.90;;;;;;;;;;5065139;28;20235;-80
2024/01/31 05:46:09;;;;;;;2.10;0.70;;;;;;;;;;5088927;28;20195;-81
2024/01/31 05:48:36;;;;;;;2.33;0.67;;;;;;;;;;5084733;28;20207;-81
2024/01/31 05:51:02;;;;;;;0.57;0.50;;;;;;;;;;5076145;28;20380;-78
2024/01/31 05:53:28;;;;;;;0.50;0.50;;;;;;;;;;5074757;28;20237;-79
2024/01/31 05:55:54;;;;;;;1.87;0.97;;;;;;;;;;5081249;28;20216;-79
2024/01/31 05:58:23;;;;;;;1.80;0.80;;;;;;;;;;5085618;28;20644;-79
2024/01/31 06:00:49;;;;;;;0.50;0.40;;;;;;;;;;5087220;28;20215;-77
2024/01/31 06:03:15;;;;;;;0.60;0.50;;;;;;;;;;5070534;28;20637;-80
2024/01/31 06:05:42;;;;;;;0.83;0.53;;;;;;;;;;5087775;28;20195;-80
2024/01/31 06:08:08;;;;;;;3.20;0.60;;;;;;;;;;5086466;28;20198;-79
2024/01/31 06:10:34;;;;;;;0.67;0.40;;;;;;;;;;5083955;28;20225;-81
2024/01/31 06:13:00;;;;;;;0.57;0.30;;;;;;;;;;5086973;28;20218;-81
2024/01/31 06:15:26;;;;;;;1.60;0.40;;;;;;;;;;5064419;28;20226;-80
2024/01/31 06:17:53;;;;;;;0.93;0.60;;;;;;;;;;5085301;28;20186;-79
2024/01/31 06:20:19;;;;;;;1.77;0.60;;;;;;;;;;5099401;28;20206;-80
2024/01/31 06:22:45;;;;;;;1.00;0.60;;;;;;;;;;5092870;28;20226;-79
2024/01/31 06:25:11;;;;;;;2.00;0.70;;;;;;;;;;5072724;28;20217;-81
2024/01/31 06:27:37;;;;;;;0.60;0.50;;;;;;;;;;5070065;28;20210;-81
2024/01/31 06:30:04;;;;;;;0.60;0.40;;;;;;;;;;5089459;28;20177;-80
2024/01/31 06:32:33;;;;;;;1.53;0.60;;;;;;;;;;5086729;28;20778;-80
2024/01/31 06:34:59;;;;;;;0.90;0.60;;;;;;;;;;5088291;28;20202;-79
2024/01/31 06:37:26;;;;;;;1.10;0.50;;;;;;;;;;5081347;28;20416;-79
2024/01/31 06:39:52;;;;;;;1.53;0.53;;;;;;;;;;5062916;28;20219;-80
2024/01/31 06:42:18;;;;;;;1.00;0.50;;;;;;;;;;5082766;28;20215;-79
2024/01/31 06:44:44;;;;;;;0.50;0.30;;;;;;;;;;5082662;28;20692;-80
2024/01/31 06:47:10;;;;;;;0.47;0.40;;;;;;;;;;5065034;28;20214;-80
2024/01/31 06:49:36;;;;;;;0.63;0.60;;;;;;;;;;5083554;28;20194;-81
2024/01/31 06:52:02;;;;;;;1.03;0.53;;;;;;;;;;5062634;28;20821;-81
2024/01/31 06:54:28;;;;;;;0.93;0.40;;;;;;;;;;5081073;28;20222;-81
2024/01/31 06:56:54;;;;;;;0.70;0.40;;;;;;;;;;5086799;28;20175;-79
2024/01/31 06:59:20;;;;;;;2.80;0.80;;;;;;;;;;5067065;28;20779;-81
2024/01/31 07:01:46;;;;;;;2.80;0.60;;;;;;;;;;5078524;28;20207;-80
2024/01/31 07:04:12;;;;;;;0.93;0.43;;;;;;;;;;5063707;28;20215;-79
2024/01/31 07:06:39;;;;;;;2.10;0.80;;;;;;;;;;5070528;28;20708;-80
2024/01/31 07:09:04;;;;;;;2.27;0.40;;;;;;;;;;5082890;28;20171;-80
2024/01/31 07:11:31;;;;;;;1.30;0.60;;;;;;;;;;5086618;28;20212;-80
2024/01/31 07:13:57;;;;;;;0.97;0.30;;;;;;;;;;5084161;28;20237;-79
2024/01/31 07:16:23;;;;;;;0.20;0.20;;;;;;;;;;5084143;28;20215;-79
2024/01/31 07:18:49;;;;;;;0.90;0.30;;;;;;;;;;5086146;28;20216;-80
2024/01/31 07:21:23;;;;;;;0.50;0.20;;;;;;;;;;5084883;28;20194;-80
2024/01/31 07:23:49;;;;;;;1.10;0.57;;;;;;;;;;5088087;28;20209;-80
2024/01/31 07:26:26;;;;;;;1.03;0.63;;;;;;;;;;5085302;28;20205;-79
2024/01/31 07:28:52;;;;;;;1.10;0.50;;;;;;;;;;5083119;28;20296;-82
2024/01/31 07:31:18;;;;;;;1.00;0.27;;;;;;;;;;5074994;28;20269;-82
2024/01/31 07:33:46;;;;;;;0.27;0.20;;;;;;;;;;5093262;28;20214;-81
2024/01/31 07:36:12;;;;;;;1.90;1.17;;;;;;;;;;5092224;28;20215;-81
2024/01/31 07:38:41;;;;;;;0.90;0.50;;;;;;;;;;5097494;28;20238;-82
2024/01/31 07:41:07;;;;;;;3.10;1.07;;;;;;;;;;5092527;28;20215;-81
2024/01/31 07:43:33;;;;;;;1.53;1.00;;;;;;;;;;5098652;28;20269;-80
2024/01/31 07:45:59;;;;;;;0.97;0.67;;;;;;;;;;5094855;28;20744;-81
2024/01/31 07:48:25;;;;;;;1.70;0.70;;;;;;;;;;5092063;28;20195;-80
2024/01/31 07:50:51;;;;;;;1.47;0.60;;;;;;;;;;5092682;28;20182;-81
2024/01/31 07:53:17;;;;;;;1.37;0.90;;;;;;;;;;5071894;28;20214;-81
2024/01/31 07:55:43;;;;;;;1.80;0.90;;;;;;;;;;5092609;28;20211;-81
2024/01/31 07:58:09;;;;;;;1.30;0.60;;;;;;;;;;5074178;28;20213;-81
2024/01/31 08:00:35;;;;;;;0.90;0.60;;;;;;;;;;5089248;28;20211;-80
2024/01/31 08:03:01;;;;;;;2.43;0.40;;;;;;;;;;5090187;28;20863;-80
2024/01/31 08:05:28;;;;;;;2.50;1.30;;;;;;;;;;5094291;28;20202;-80
2024/01/31 08:07:54;;;;;;;3.33;1.53;;;;;;;;;;5070215;28;20202;-80
2024/01/31 08:10:20;;;;;;;1.83;0.80;;;;;;;;;;5087697;28;20199;-80
2024/01/31 08:12:48;;;;;;;1.73;0.60;;;;;;;;;;5076128;28;20228;-81
2024/01/31 08:15:14;;;;;;;1.60;0.90;;;;;;;;;;5094265;28;20606;-82
2024/01/31 08:17:40;;;;;;;1.70;0.63;;;;;;;;;;5096685;28;20178;-82
2024/01/31 08:20:06;;;;;;;1.83;0.83;;;;;;;;;;5085997;28;20253;-78
2024/01/31 08:22:33;;;;;;;1.67;0.70;;;;;;;;;;5081512;28;20218;-78
2024/01/31 08:24:59;;;;;;;1.00;0.77;;;;;;;;;;5083790;28;20218;-80
2024/01/31 08:27:25;;;;;;;5.30;0.90;;;;;;;;;;5087193;28;20649;-80
2024/01/31 08:29:52;;;;;;;1.90;1.00;;;;;;;;;;5070081;28;20281;-80
2024/01/31 08:32:18;;;;;;;1.13;0.60;;;;;;;;;;5086257;28;20210;-78
2024/01/31 08:34:44;;;;;;;0.50;0.50;;;;;;;;;;5068815;28;20232;-80
2024/01/31 08:37:10;;;;;;;0.67;0.50;;;;;;;;;;5085836;28;20215;-80
2024/01/31 08:39:36;;;;;;;2.53;0.70;;;;;;;;;;5086730;28;20217;-80
2024/01/31 08:42:02;;;;;;;0.73;0.40;;;;;;;;;;5088905;28;20191;-79
2024/01/31 08:44:28;;;;;;;0.60;0.30;;;;;;;;;;5091426;28;20645;-78
2024/01/31 08:46:54;;;;;;;2.00;0.80;;;;;;;;;;5089445;28;20230;-80
2024/01/31 08:49:21;;;;;;;0.70;0.53;;;;;;;;;;5089966;28;20217;-80
2024/01/31 08:51:47;;;;;;;1.33;0.40;;;;;;;;;;5089886;28;20278;-84
2024/01/31 08:54:13;;;;;;;1.13;0.43;;;;;;;;;;5091815;28;20206;-81
2024/01/31 08:56:39;;;;;;;1.07;0.67;;;;;;;;;;5091557;28;20195;-79
2024/01/31 08:59:05;;;;;;;0.60;0.40;;;;;;;;;;5084796;28;20597;-79
2024/01/31 09:01:31;;;;;;;0.80;0.30;;;;;;;;;;5069234;28;20231;-80
2024/01/31 09:03:57;;;;;;;0.63;0.43;;;;;;;;;;5087936;28;20728;-77
2024/01/31 09:06:24;;;;;;;1.70;0.33;;;;;;;;;;5067470;28;20183;-80
2024/01/31 09:08:50;;;;;;;1.23;0.67;;;;;;;;;;5090435;28;20188;-80
2024/01/31 09:11:16;;;;;;;1.87;0.50;;;;;;;;;;5088484;28;20230;-80
2024/01/31 09:13:43;;;;;;;2.10;0.50;;;;;;;;;;5091143;28;20214;-80
2024/01/31 09:16:09;;;;;;;0.63;0.30;;;;;;;;;;5092427;28;20249;-80
2024/01/31 09:18:35;;;;;;;3.83;0.67;;;;;;;;;;5092325;28;20234;-82
2024/01/31 09:21:01;;;;;;;0.50;0.20;;;;;;;;;;5066229;22;20691;-79
2024/01/31 09:23:27;;;;;;;0.30;0.30;;;;;;;;;;5030206;28;20209;-80
2024/01/31 09:25:53;;;;;;;0.87;0.40;;;;;;;;;;5004140;28;20223;-81
2024/01/31 09:28:20;;;;;;;1.10;0.50;;;;;;;;;;5019248;28;20217;-79
2024/01/31 09:30:46;;;;;;;0.63;0.43;;;;;;;;;;5031938;28;20212;-80
2024/01/31 09:33:12;;;;;;;2.23;0.63;;;;;;;;;;5030105;28;20203;-79
2024/01/31 09:35:39;;;;;;;1.37;0.40;;;;;;;;;;5030758;28;20197;-79
2024/01/31 09:38:05;;;;;;;2.17;0.40;;;;;;;;;;5008283;28;20200;-82
2024/01/31 09:40:31;;;;;;;4.50;1.10;;;;;;;;;;5005783;28;20205;-80
2024/01/31 09:42:57;;;;;;;1.70;0.70;;;;;;;;;;5027135;28;20247;-79
2024/01/31 09:45:27;;;;;;;2.40;0.70;;;;;;;;;;5011332;28;20208;-81
2024/01/31 09:47:57;;;;;;;0.90;0.30;;;;;;;;;;5014711;28;20280;-80
2024/01/31 09:50:23;;;;;;;1.67;0.30;;;;;;;;;;5013896;28;20255;-81
2024/01/31 09:52:53;;;;;;;0.80;0.40;;;;;;;;;;5034617;28;20217;-83
2024/01/31 09:55:20;;;;;;;3.40;0.93;;;;;;;;;;5010802;28;20252;-81
2024/01/31 09:57:46;;;;;;;0.90;0.60;;;;;;;;;;5020504;28;20213;-83
2024/01/31 10:00:12;;;;;;;1.63;1.10;;;;;;;;;;5030176;28;20191;-79
2024/01/31 10:02:38;;;;;;;3.27;0.97;;;;;;;;;;5011052;28;20690;-79
2024/01/31 10:05:06;;;;;;;0.97;0.60;;;;;;;;;;5027630;28;20282;-80
2024/01/31 10:07:32;;;;;;;0.37;0.20;;;;;;;;;;5010877;28;20249;-81
2024/01/31 10:10:00;;;;;;;1.50;0.30;;;;;;;;;;5027567;28;20738;-79
2024/01/31 10:12:26;;;;;;;3.60;0.40;;;;;;;;;;5005796;28;20275;-80
2024/01/31 10:14:53;;;;;;;3.33;0.53;;;;;;;;;;5014524;28;20211;-79
2024/01/31 10:17:22;;;;;;;1.10;0.50;;;;;;;;;;5007173;28;20220;-79
2024/01/31 10:19:51;;;;;;;1.63;0.63;;;;;;;;;;5030417;28;20300;-80
2024/01/31 10:22:18;;;;;;;1.60;0.67;;;;;;;;;;5007197;28;20801;-79
2024/01/31 10:24:50;;;;;;;1.57;0.50;;;;;;;;;;5008853;28;20756;-79
2024/01/31 10:27:19;;;;;;;0.97;0.60;;;;;;;;;;5024037;28;20255;-79
2024/01/31 10:29:47;;;;;;;0.23;0.23;;;;;;;;;;5005577;28;20180;-79
2024/01/31 10:32:15;;;;;;;2.33;0.70;;;;;;;;;;5007684;28;20603;-79
2024/01/31 10:34:42;;;;;;;1.03;0.40;;;;;;;;;;5027927;28;20201;-80
2024/01/31 10:37:08;;;;;;;4.53;1.80;;;;;;;;;;5008146;28;20208;-79
2024/01/31 10:39:35;;;;;;;3.17;0.70;;;;;;;;;;5008774;28;20358;-81
2024/01/31 10:42:01;;;;;;;1.27;1.07;;;;;;;;;;5035438;28;20234;-82
2024/01/31 10:44:28;;;;;;;3.30;0.53;;;;;;;;;;5008305;28;20220;-81
2024/01/31 10:46:54;;;;;;;1.00;0.50;;;;;;;;;;5012105;28;20741;-80
2024/01/31 10:49:20;;;;;;;2.63;1.17;;;;;;;;;;5028173;28;20204;-80
2024/01/31 10:51:47;;;;;;;1.50;0.80;;;;;;;;;;5001859;28;20213;-80
2024/01/31 10:54:14;;;;;;;3.97;1.20;;;;;;;;;;5001846;28;20303;-79
2024/01/31 10:56:41;;;;;;;2.33;0.77;;;;;;;;;;5023409;28;20191;-78
2024/01/31 10:59:07;;;;;;;3.43;1.20;;;;;;;;;;5003586;28;20204;-80
2024/01/31 11:01:33;;;;;;;10.23;1.70;;;;;;;;;;5002165;28;20296;-79
2024/01/31 11:04:04;;;;;;;3.40;1.17;;;;;;;;;;5020200;28;20231;-78
2024/01/31 11:06:39;;;;;;;4.63;0.87;;;;;;;;;;5003358;28;20232;-80
2024/01/31 11:09:06;;;;;;;2.53;0.83;;;;;;;;;;5006952;28;20701;-79
2024/01/31 11:11:33;;;;;;;1.07;0.70;;;;;;;;;;5018181;28;20741;-80
2024/01/31 11:14:09;;;;;;;2.27;0.83;;;;;;;;;;5024902;28;20661;-80
2024/01/31 11:16:35;;;;;;;3.70;1.33;;;;;;;;;;5020373;28;20251;-80
2024/01/31 11:19:05;;;;;;;3.50;1.27;;;;;;;;;;5023301;28;20216;-80
2024/01/31 11:21:39;;;;;;;4.80;1.70;;;;;;;;;;5019338;28;20228;-79
2024/01/31 11:24:06;;;;;;;2.63;1.33;;;;;;;;;;5008596;28;20176;-81
2024/01/31 11:26:36;;;;;;;3.07;1.10;;;;;;;;;;5026004;28;20212;-78
2024/01/31 11:29:03;;;;;;;4.63;1.20;;;;;;;;;;5027122;28;20276;-80
2024/01/31 11:31:29;;;;;;;2.47;1.20;;;;;;;;;;5005680;28;20216;-78
2024/01/31 11:33:57;;;;;;;5.77;1.37;;;;;;;;;;5008933;28;20215;-80
2024/01/31 11:36:23;;;;;;;6.00;1.27;;;;;;;;;;5030813;28;20187;-79
2024/01/31 11:38:50;;;;;;;7.23;1.40;;;;;;;;;;5008621;28;20183;-79
2024/01/31 11:41:16;;;;;;;1.57;1.20;;;;;;;;;;5027777;28;20216;-80
2024/01/31 11:43:42;;;;;;;3.33;1.47;;;;;;;;;;5004091;28;20220;-79
2024/01/31 11:46:08;;;;;;;4.27;0.87;;;;;;;;;;5012346;28;20208;-80
2024/01/31 11:48:35;;;;;;;3.23;0.87;;;;;;;;;;5028084;28;20212;-80
2024/01/31 11:51:03;;;;;;;5.33;1.03;;;;;;;;;;5014365;28;20164;-81
2024/01/31 11:53:29;;;;;;;3.43;0.97;;;;;;;;;;5026584;28;20753;-81
2024/01/31 11:55:55;;;;;;;4.13;0.93;;;;;;;;;;5028849;28;20247;-79
2024/01/31 11:58:21;;;;;;;2.03;0.80;;;;;;;;;;5013573;28;20311;-80
2024/01/31 12:00:48;;;;;;;2.17;0.80;;;;;;;;;;5011853;28;20706;-81
2024/01/31 12:03:14;;;;;;;4.43;0.73;;;;;;;;;;5025636;28;20196;-80
2024/01/31 12:05:40;;;;;;;11.77;1.53;;;;;;;;;;5030008;28;20597;-82
2024/01/31 12:08:06;;;;;;;1.83;0.73;;;;;;;;;;5029683;28;20241;-80
2024/01/31 12:10:32;;;;;;;3.57;1.23;;;;;;;;;;5026655;28;20312;-80
2024/01/31 12:13:00;;;;;;;4.37;0.97;;;;;;;;;;5032760;28;20204;-79
2024/01/31 12:15:26;;;;;;;4.13;1.10;;;;;;;;;;5015816;28;20599;-81
2024/01/31 12:17:53;;;;;;;4.73;1.77;;;;;;;;;;5036843;28;20180;-81
2024/01/31 12:20:19;;;;;;;6.10;1.20;;;;;;;;;;5031960;28;20220;-82
2024/01/31 12:22:46;;;;;;;7.77;1.17;;;;;;;;;;5037856;28;20216;-81
2024/01/31 12:25:12;;;;;;;2.17;0.70;;;;;;;;;;5037290;28;20812;-80
2024/01/31 12:27:38;;;;;;;1.97;0.90;;;;;;;;;;5016755;28;20209;-81
2024/01/31 12:30:04;;;;;;;1.83;0.70;;;;;;;;;;5038209;28;20199;-80
2024/01/31 12:32:30;;;;;;;4.40;1.10;;;;;;;;;;5036062;28;20201;-81
2024/01/31 12:34:57;;;;;;;1.60;0.83;;;;;;;;;;5035405;28;20215;-82
2024/01/31 12:37:23;;;;;;;3.70;1.33;;;;;;;;;;5018426;28;20204;-79
2024/01/31 12:39:49;;;;;;;4.30;1.03;;;;;;;;;;5035992;28;20430;-81
2024/01/31 12:42:15;;;;;;;4.40;1.27;;;;;;;;;;5012389;28;20193;-81
2024/01/31 12:44:42;;;;;;;2.70;1.07;;;;;;;;;;5036040;28;20233;-81
2024/01/31 12:47:09;;;;;;;4.53;1.10;;;;;;;;;;5016586;28;20227;-80
2024/01/31 12:49:39;;;;;;;3.03;1.43;;;;;;;;;;5032243;28;20236;-81
2024/01/31 12:52:05;;;;;;;2.07;0.83;;;;;;;;;;5016749;28;20263;-81
2024/01/31 12:54:32;;;;;;;3.70;1.03;;;;;;;;;;5018853;28;20216;-80
2024/01/31 12:56:58;;;;;;;4.43;0.70;;;;;;;;;;5034897;28;20191;-81
2024/01/31 12:59:24;;;;;;;2.47;1.20;;;;;;;;;;5015487;28;20224;-80
2024/01/31 13:01:50;;;;;;;1.20;0.60;;;;;;;;;;5014501;28;20907;-81
2024/01/31 13:04:16;;;;;;;2.93;1.37;;;;;;;;;;5018807;28;20213;-80
2024/01/31 13:06:42;;;;;;;4.23;0.90;;;;;;;;;;5013471;28;20778;-80
2024/01/31 13:09:09;;;;;;;2.27;0.60;;;;;;;;;;5031744;28;20169;-80
2024/01/31 13:11:36;;;;;;;3.80;1.00;;;;;;;;;;5009704;28;20228;-81
2024/01/31 13:14:02;;;;;;;4.57;1.27;;;;;;;;;;5008186;28;20224;-81
2024/01/31 13:16:28;;;;;;;2.77;1.27;;;;;;;;;;5030013;28;20223;-77
2024/01/31 13:18:54;;;;;;;4.57;0.90;;;;;;;;;;5031689;28;20231;-79
2024/01/31 13:21:20;;;;;;;2.57;0.77;;;;;;;;;;5004231;28;20256;-80
2024/01/31 13:23:46;;;;;;;2.43;1.10;;;;;;;;;;5009679;28;20172;-80
2024/01/31 13:26:12;;;;;;;3.23;1.03;;;;;;;;;;5011810;28;20216;-82
2024/01/31 13:28:38;;;;;;;2.70;0.90;;;;;;;;;;5029999;28;20227;-79
2024/01/31 13:31:04;;;;;;;1.93;0.70;;;;;;;;;;5008936;28;20236;-79
2024/01/31 13:33:30;;;;;;;7.13;0.90;;;;;;;;;;5031159;28;20208;-79
2024/01/31 13:35:56;;;;;;;2.23;0.90;;;;;;;;;;5011882;28;20192;-80
2024/01/31 13:38:23;;;;;;;2.27;0.90;;;;;;;;;;5010662;28;20420;-80
2024/01/31 13:40:49;;;;;;;1.50;1.00;;;;;;;;;;5022964;28;20211;-80
2024/01/31 13:43:15;;;;;;;3.50;1.10;;;;;;;;;;5035488;28;20809;-81
2024/01/31 13:45:41;;;;;;;5.03;1.47;;;;;;;;;;5015321;28;20211;-80
2024/01/31 13:48:07;;;;;;;0.90;0.40;;;;;;;;;;5016933;28;20173;-82
2024/01/31 13:50:33;;;;;;;1.97;0.60;;;;;;;;;;5011398;28;20213;-82
2024/01/31 13:52:59;;;;;;;1.47;0.67;;;;;;;;;;5025970;28;20260;-80
2024/01/31 13:55:27;;;;;;;3.43;1.10;;;;;;;;;;5029514;28;20201;-81
2024/01/31 13:57:53;;;;;;;4.20;1.10;;;;;;;;;;5033385;28;20265;-81
2024/01/31 14:00:19;;;;;;;1.50;0.77;;;;;;;;;;5030460;28;20207;-81
2024/01/31 14:02:45;;;;;;;4.50;1.17;;;;;;;;;;5031500;28;20208;-81
2024/01/31 14:05:11;;;;;;;1.63;0.80;;;;;;;;;;5015876;28;20239;-81
2024/01/31 14:07:37;;;;;;;3.87;1.13;;;;;;;;;;5037989;28;20203;-82
2024/01/31 14:10:03;;;;;;;2.07;1.00;;;;;;;;;;5033801;28;20204;-80
2024/01/31 14:12:29;;;;;;;1.70;0.70;;;;;;;;;;5030973;28;20337;-83
2024/01/31 14:14:55;;;;;;;2.97;0.97;;;;;;;;;;5025421;28;20219;-82
2024/01/31 14:17:22;;;;;;;2.63;0.70;;;;;;;;;;5033814;28;20231;-80
2024/01/31 14:19:48;;;;;;;1.90;0.90;;;;;;;;;;5006720;28;20208;-79
2024/01/31 14:22:14;;;;;;;4.17;0.90;;;;;;;;;;5027213;28;20220;-80
2024/01/31 14:24:41;;;;;;;2.10;1.10;;;;;;;;;;5027269;28;20239;-80
2024/01/31 14:27:07;;;;;;;1.57;1.20;;;;;;;;;;5011253;28;20177;-79
2024/01/31 14:29:33;;;;;;;1.50;1.10;;;;;;;;;;5026335;28;20628;-81
2024/01/31 14:31:59;;;;;;;4.10;1.20;;;;;;;;;;5018627;28;20208;-79
2024/01/31 14:34:25;;;;;;;3.33;1.33;;;;;;;;;;5023263;28;20210;-78
2024/01/31 14:36:52;;;;;;;1.60;1.20;;;;;;;;;;5005663;28;20580;-80
2024/01/31 14:39:18;;;;;;;2.80;1.20;;;;;;;;;;5021628;28;20270;-79